Time;durP1;ratioP1;P1;durP2;ratioP2;P2;SDS_P1;SDS_P2;PMS_P1;PMS_P2;Temp;Humidity;BMP_temperature;BMP_pressure;BME280_temperature;BME280_humidity;BME280_pressure;Samples;Min_cycle;Max_cycle;Signal;HPM_P1;HPM_P2
2021/11/28 00:00:55;;;;;;;8.63;7.47;;;;;;;3.82;65.88;98154.19;1761234;80;21012;-40
2021/11/28 00:03:23;;;;;;;9.60;8.15;;;;;;;3.76;65.92;98148.30;1758413;80;21043;-40
2021/11/28 00:05:57;;;;;;;9.98;7.70;;;;;;;3.73;65.98;98146.84;1770055;80;20957;-40
2021/11/28 00:11:27;;;;;;;10.05;8.08;;;;;;;3.74;66.11;98152.43;1755413;80;21129;-40
2021/11/28 00:14:04;;;;;;;9.63;7.53;;;;;;;3.78;65.93;98154.64;1780356;80;21633;-40
2021/11/28 00:16:19;;;;;;;10.20;8.30;;;;;;;3.79;65.91;98163.69;1757242;80;21015;-40
2021/11/28 00:18:46;;;;;;;9.73;7.90;;;;;;;3.78;65.85;98163.46;1755132;80;21566;-40
2021/11/28 00:21:13;;;;;;;10.30;7.33;;;;;;;3.73;65.69;98172.31;1755846;80;21543;-40
2021/11/28 00:23:41;;;;;;;9.23;7.80;;;;;;;3.61;65.88;98185.22;1779307;80;21124;-40
2021/11/28 00:26:08;;;;;;;12.47;9.80;;;;;;;3.49;66.39;98179.34;1785791;80;21523;-40
2021/11/28 00:28:35;;;;;;;12.30;9.88;;;;;;;3.45;66.70;98173.67;1763948;80;21040;-40
2021/11/28 00:31:03;;;;;;;13.90;10.90;;;;;;;3.44;67.10;98173.44;1754833;80;21044;-40
2021/11/28 00:33:31;;;;;;;14.50;10.93;;;;;;;3.45;67.31;98176.34;1756614;80;21087;-40
2021/11/28 00:35:58;;;;;;;11.60;9.25;;;;;;;3.46;67.27;98164.52;1754885;80;21214;-40
2021/11/28 00:38:25;;;;;;;12.25;9.23;;;;;;;3.49;67.18;98162.48;1755821;80;21044;-40
2021/11/28 00:40:53;;;;;;;11.78;10.10;;;;;;;3.56;67.08;98164.03;1761094;80;22043;-40
2021/11/28 00:43:20;;;;;;;12.85;10.88;;;;;;;3.60;67.15;98162.78;1771553;80;21779;-40
2021/11/28 00:45:48;;;;;;;13.68;11.10;;;;;;;3.63;66.98;98164.20;1785479;80;21051;-40
2021/11/28 00:48:16;;;;;;;13.95;11.00;;;;;;;3.64;67.07;98163.09;1783478;79;20985;-40
2021/11/28 00:50:46;;;;;;;15.75;11.88;;;;;;;3.65;67.16;98163.87;1762807;80;21075;-40
2021/11/28 00:53:16;;;;;;;12.75;10.48;;;;;;;3.66;67.08;98176.16;1764019;80;22054;-40
2021/11/28 00:55:43;;;;;;;14.43;11.03;;;;;;;3.62;67.08;98173.39;1775016;80;21091;-40
2021/11/28 00:58:10;;;;;;;14.30;11.50;;;;;;;3.55;67.20;98175.86;1780747;80;21047;-40
2021/11/28 01:00:39;;;;;;;12.63;10.10;;;;;;;3.54;67.59;98174.86;1759165;80;21021;-40
2021/11/28 01:03:07;;;;;;;13.15;10.78;;;;;;;3.62;67.69;98174.73;1786052;80;20983;-40
2021/11/28 01:05:36;;;;;;;12.82;10.45;;;;;;;3.65;67.74;98171.36;1755460;79;21551;-40
2021/11/28 01:08:05;;;;;;;11.95;10.03;;;;;;;3.66;67.87;98167.55;1755178;80;20960;-40
2021/11/28 01:10:33;;;;;;;13.03;10.55;;;;;;;3.70;67.83;98173.78;1755034;80;21648;-40
2021/11/28 01:13:00;;;;;;;13.78;11.60;;;;;;;3.72;67.67;98172.89;1769171;80;21547;-41
2021/11/28 01:15:27;;;;;;;13.15;11.00;;;;;;;3.72;67.74;98172.89;1769284;80;21030;-40
2021/11/28 01:17:55;;;;;;;11.08;9.88;;;;;;;3.68;67.93;98163.95;1754811;80;21030;-40
2021/11/28 01:20:21;;;;;;;11.88;9.75;;;;;;;3.66;67.87;98164.87;1754865;80;21016;-40
2021/11/28 01:22:49;;;;;;;11.57;9.68;;;;;;;3.70;67.62;98175.12;1772888;80;21072;-40
2021/11/28 01:25:16;;;;;;;12.78;9.68;;;;;;;3.75;67.24;98173.54;1769095;80;21101;-40
2021/11/28 01:27:44;;;;;;;13.85;10.10;;;;;;;3.77;67.07;98177.23;1784733;80;21039;-41
2021/11/28 01:30:12;;;;;;;18.12;12.00;;;;;;;3.77;67.06;98177.23;1783646;80;21024;-40
2021/11/28 01:32:40;;;;;;;15.65;11.35;;;;;;;3.77;67.09;98177.23;1785438;80;21498;-40
2021/11/28 01:35:09;;;;;;;13.48;11.00;;;;;;;3.76;67.05;98172.42;1785611;80;20960;-40
2021/11/28 01:37:37;;;;;;;15.18;11.25;;;;;;;3.73;66.97;98166.39;1783712;80;21151;-40
2021/11/28 01:40:11;;;;;;;16.52;10.90;;;;;;;3.69;66.95;98161.50;1758965;80;20963;-40
2021/11/28 01:42:46;;;;;;;13.03;10.63;;;;;;;3.66;66.95;98175.59;1766479;79;21669;-40
2021/11/28 01:45:21;;;;;;;14.38;11.10;;;;;;;3.61;66.57;98177.19;1755196;80;21083;-40
2021/11/28 01:47:48;;;;;;;15.83;11.55;;;;;;;3.54;66.51;98175.64;1770354;80;21514;-40
2021/11/28 01:50:17;;;;;;;12.97;10.17;;;;;;;3.53;66.62;98167.41;1752436;80;21138;-40
2021/11/28 01:52:44;;;;;;;14.18;10.55;;;;;;;3.54;66.66;98158.22;1752154;80;20987;-40
2021/11/28 01:55:17;;;;;;;12.88;10.68;;;;;;;3.58;66.76;98151.08;1760246;80;20941;-40
2021/11/28 01:57:44;;;;;;;15.05;11.63;;;;;;;3.58;67.02;98145.72;1771131;80;21068;-40
2021/11/28 02:02:36;;;;;;;15.05;11.70;;;;;;;3.42;67.55;98132.84;1847044;77;22250;-40
2021/11/28 02:05:05;;;;;;;14.87;10.63;;;;;;;3.24;68.15;98124.89;1796677;78;20975;-40
2021/11/28 02:07:32;;;;;;;15.83;11.85;;;;;;;3.12;68.83;98126.25;1821135;77;21804;-39
2021/11/28 02:09:59;;;;;;;14.20;11.55;;;;;;;3.02;69.36;98116.25;1749367;80;20921;-40
2021/11/28 02:12:29;;;;;;;15.55;12.53;;;;;;;2.99;69.68;98119.61;1799730;77;20965;-40
2021/11/28 02:14:58;;;;;;;16.03;13.10;;;;;;;2.94;70.10;98118.52;1807166;77;20957;-40
2021/11/28 02:17:26;;;;;;;17.25;14.30;;;;;;;2.89;70.27;98110.72;1793586;77;21007;-40
2021/11/28 02:19:53;;;;;;;17.70;14.05;;;;;;;2.84;70.33;98113.63;1796304;78;21129;-40
2021/11/28 02:22:21;;;;;;;19.12;14.13;;;;;;;2.81;70.35;98118.30;1814969;78;21469;-40
2021/11/28 02:24:49;;;;;;;18.05;13.58;;;;;;;2.80;70.35;98111.97;1817506;77;20956;-40
2021/11/28 02:27:22;;;;;;;18.90;14.68;;;;;;;2.88;70.22;98115.84;1808407;77;21029;-40
2021/11/28 02:29:49;;;;;;;18.20;13.48;;;;;;;2.89;70.15;98118.75;1810251;77;21534;-41
2021/11/28 02:32:17;;;;;;;20.60;15.10;;;;;;;2.85;70.34;98111.73;1822116;78;21786;-42
2021/11/28 02:34:45;;;;;;;18.10;14.07;;;;;;;2.83;70.47;98114.73;1800299;78;20920;-41
2021/11/28 02:37:12;;;;;;;18.32;14.28;;;;;;;2.82;70.62;98121.20;1804715;77;21610;-41
2021/11/28 02:39:41;;;;;;;19.73;13.80;;;;;;;2.85;70.70;98132.59;1798025;77;20926;-41
2021/11/28 02:42:09;;;;;;;18.15;14.10;;;;;;;2.94;70.55;98135.91;1789156;77;21009;-41
2021/11/28 02:44:36;;;;;;;17.35;13.70;;;;;;;3.04;70.38;98134.66;1806535;77;21802;-41
2021/11/28 02:47:04;;;;;;;20.05;14.53;;;;;;;3.13;70.38;98133.17;1806239;79;20980;-41
2021/11/28 02:49:31;;;;;;;19.23;14.38;;;;;;;3.20;70.11;98140.83;1807425;78;20965;-41
2021/11/28 02:51:58;;;;;;;19.73;14.47;;;;;;;3.25;69.79;98146.51;1815576;78;20964;-42
2021/11/28 02:54:25;;;;;;;17.85;14.18;;;;;;;3.28;69.59;98146.63;1793632;77;21477;-41
2021/11/28 02:56:52;;;;;;;17.77;13.35;;;;;;;3.32;69.25;98156.09;1811536;79;21748;-41
2021/11/28 02:59:19;;;;;;;19.05;14.50;;;;;;;3.31;68.75;98163.34;1806124;77;20957;-41
2021/11/28 03:01:47;;;;;;;19.70;14.35;;;;;;;3.30;68.35;98154.30;1809150;78;21516;-42
2021/11/28 03:04:19;;;;;;;17.60;12.93;;;;;;;3.26;68.01;98158.23;1778035;78;20965;-41
2021/11/28 03:06:46;;;;;;;16.25;13.30;;;;;;;3.25;67.64;98155.87;1806089;79;21042;-42
2021/11/28 03:09:13;;;;;;;17.05;13.08;;;;;;;3.22;67.05;98154.67;1787380;79;21113;-41
2021/11/28 03:11:41;;;;;;;18.75;13.45;;;;;;;3.13;66.87;98162.63;1788679;79;20891;-41
2021/11/28 03:14:08;;;;;;;17.05;13.95;;;;;;;2.99;67.16;98163.78;1800736;77;20970;-41
2021/11/28 03:16:35;;;;;;;19.48;14.20;;;;;;;2.93;67.06;98174.50;1807533;77;21007;-41
2021/11/28 03:19:03;;;;;;;19.70;14.87;;;;;;;2.87;67.31;98169.15;1808831;77;21001;-41
2021/11/28 03:21:33;;;;;;;19.23;14.43;;;;;;;2.88;67.54;98172.05;1781343;80;21779;-42
2021/11/28 03:24:02;;;;;;;18.25;13.68;;;;;;;2.89;67.33;98173.63;1785103;79;20922;-41
2021/11/28 03:26:34;;;;;;;18.92;13.88;;;;;;;2.79;66.86;98174.08;1782711;77;21553;-41
2021/11/28 03:29:13;;;;;;;18.17;14.03;;;;;;;2.65;67.01;98184.35;1793537;79;21514;-41
2021/11/28 03:31:46;;;;;;;18.90;14.05;;;;;;;2.59;67.29;98170.97;1775290;79;20965;-41
2021/11/28 03:34:34;;;;;;;19.75;13.55;;;;;;;2.63;67.55;98167.84;1811300;77;21539;-41
2021/11/28 03:37:03;;;;;;;20.85;14.07;;;;;;;2.69;67.88;98146.44;1799373;79;21072;-41
2021/11/28 03:39:30;;;;;;;20.17;14.68;;;;;;;2.69;68.02;98142.42;1785794;77;20964;-41
2021/11/28 03:42:02;;;;;;;22.70;15.45;;;;;;;2.64;68.45;98137.30;1807098;77;21076;-41
2021/11/28 03:44:30;;;;;;;20.52;15.28;;;;;;;2.57;68.76;98129.05;1806152;78;21507;-41
2021/11/28 03:47:10;;;;;;;22.20;15.18;;;;;;;2.52;69.26;98125.27;1810048;79;20973;-41
2021/11/28 03:49:37;;;;;;;21.07;15.63;;;;;;;2.50;69.74;98119.48;1807676;77;21015;-41
2021/11/28 03:52:06;;;;;;;20.57;15.97;;;;;;;2.53;70.20;98124.16;1797492;79;20931;-41
2021/11/28 03:54:35;;;;;;;21.70;16.35;;;;;;;2.54;70.77;98119.03;1794171;77;21768;-41
2021/11/28 03:57:04;;;;;;;23.98;16.93;;;;;;;2.55;71.07;98112.57;1781736;79;21617;-42
2021/11/28 03:59:32;;;;;;;23.22;17.10;;;;;;;2.55;71.28;98109.34;1786535;79;21040;-41
2021/11/28 04:01:59;;;;;;;21.95;16.95;;;;;;;2.53;71.71;98118.80;1817167;78;20961;-41
2021/11/28 04:04:26;;;;;;;20.12;15.35;;;;;;;2.60;71.85;98117.69;1808781;78;20930;-41
2021/11/28 04:07:06;;;;;;;24.23;17.17;;;;;;;2.68;71.80;98118.67;1821853;78;21000;-41
2021/11/28 04:09:34;;;;;;;22.98;17.42;;;;;;;2.70;71.84;98128.48;1821363;78;20988;-42
2021/11/28 04:12:02;;;;;;;21.48;16.07;;;;;;;2.70;71.86;98141.31;1809842;77;21121;-41
2021/11/28 04:14:32;;;;;;;22.17;16.37;;;;;;;2.71;71.94;98144.77;1809364;77;21072;-41
2021/11/28 04:16:59;;;;;;;22.02;16.32;;;;;;;2.71;71.96;98151.46;1818822;77;20913;-41
2021/11/28 04:19:29;;;;;;;22.27;17.02;;;;;;;2.80;71.90;98150.77;1805376;78;20972;-41
2021/11/28 04:21:56;;;;;;;22.25;17.05;;;;;;;2.87;71.87;98150.97;1793007;79;21076;-41
2021/11/28 04:24:25;;;;;;;22.25;16.95;;;;;;;2.95;71.84;98154.09;1806017;78;21071;-41
2021/11/28 04:26:53;;;;;;;23.47;17.02;;;;;;;3.04;71.41;98147.48;1788632;78;21561;-41
2021/11/28 04:29:20;;;;;;;22.90;17.00;;;;;;;3.09;70.98;98141.11;1789286;78;21534;-41
2021/11/28 04:31:50;;;;;;;23.55;16.82;;;;;;;3.14;70.67;98141.43;1790161;77;21014;-41
2021/11/28 04:34:18;;;;;;;21.45;16.25;;;;;;;3.18;70.32;98144.98;1808588;77;20995;-41
2021/11/28 04:36:47;;;;;;;20.57;15.28;;;;;;;3.22;69.98;98143.97;1811531;77;21122;-41
2021/11/28 04:39:15;;;;;;;19.35;14.93;;;;;;;3.30;69.60;98140.91;1794839;78;20960;-41
2021/11/28 04:41:42;;;;;;;20.25;15.08;;;;;;;3.38;69.13;98144.02;1790093;77;20944;-41
2021/11/28 04:44:11;;;;;;;20.23;15.55;;;;;;;3.39;68.94;98149.58;1798384;78;20995;-41
2021/11/28 04:46:40;;;;;;;20.92;16.50;;;;;;;3.40;68.57;98159.95;1820017;77;21012;-41
2021/11/28 04:49:07;;;;;;;21.57;16.27;;;;;;;3.40;68.38;98152.48;1821758;78;21078;-41
2021/11/28 04:51:37;;;;;;;20.70;16.17;;;;;;;3.40;68.19;98153.81;1790190;78;21492;-41
2021/11/28 04:54:05;;;;;;;23.45;16.80;;;;;;;3.37;67.75;98155.30;1802740;78;20956;-41
2021/11/28 04:56:33;;;;;;;22.48;16.27;;;;;;;3.35;67.61;98152.72;1821797;78;21075;-41
2021/11/28 04:59:01;;;;;;;22.93;17.05;;;;;;;3.29;67.43;98154.11;1819191;78;21012;-41
2021/11/28 05:01:31;;;;;;;22.80;16.90;;;;;;;3.27;67.48;98153.66;1815830;78;21166;-41
2021/11/28 05:04:06;;;;;;;20.50;15.48;;;;;;;3.25;67.58;98145.17;1779989;77;21036;-41
2021/11/28 05:06:40;;;;;;;19.80;15.32;;;;;;;3.27;67.47;98140.27;1780535;79;21033;-41
2021/11/28 05:09:27;;;;;;;21.57;15.45;;;;;;;3.29;67.52;98146.07;1795911;77;21017;-41
2021/11/28 05:11:54;;;;;;;20.00;15.25;;;;;;;3.26;67.63;98148.07;1805119;79;21479;-41
2021/11/28 05:14:24;;;;;;;24.32;17.85;;;;;;;3.21;67.94;98146.41;1805684;77;21130;-42
2021/11/28 05:16:52;;;;;;;37.42;20.90;;;;;;;3.17;68.51;98150.12;1799199;77;21573;-41
2021/11/28 05:19:20;;;;;;;34.45;19.52;;;;;;;3.05;69.43;98150.36;1790143;79;20933;-41
2021/11/28 05:21:55;;;;;;;28.55;18.37;;;;;;;2.97;70.34;98151.28;1766516;79;20901;-41
2021/11/28 05:24:22;;;;;;;40.50;19.32;;;;;;;2.95;71.00;98148.16;1789788;77;20925;-41
2021/11/28 05:26:53;;;;;;;53.80;20.00;;;;;;;2.93;71.66;98145.61;1806986;79;21151;-41
2021/11/28 05:29:23;;;;;;;57.25;20.60;;;;;;;2.89;72.04;98148.19;1805961;79;21000;-41
2021/11/28 05:31:51;;;;;;;39.92;17.92;;;;;;;2.85;72.25;98149.98;1740634;82;21033;-41
2021/11/28 05:34:24;;;;;;;42.27;17.57;;;;;;;2.86;72.44;98149.41;1740786;82;21084;-41
2021/11/28 05:36:59;;;;;;;49.98;16.77;;;;;;;2.86;72.66;98147.51;1783525;79;21563;-41
2021/11/28 05:39:26;;;;;;;49.30;17.40;;;;;;;2.78;72.98;98144.97;1740683;82;21843;-41
2021/11/28 05:41:54;;;;;;;22.77;14.87;;;;;;;2.76;73.41;98147.22;1735261;80;21069;-41
2021/11/28 05:44:21;;;;;;;44.73;14.70;;;;;;;2.77;73.58;98144.73;1805071;79;21647;-41
2021/11/28 05:46:54;;;;;;;49.90;14.63;;;;;;;2.85;73.55;98145.97;1796038;79;21523;-41
2021/11/28 05:49:26;;;;;;;59.30;14.65;;;;;;;2.92;73.54;98159.55;1789589;77;21103;-41
2021/11/28 05:51:57;;;;;;;51.42;15.53;;;;;;;2.93;73.74;98158.99;1798636;77;22348;-41
2021/11/28 05:54:24;;;;;;;60.70;15.80;;;;;;;2.95;73.74;98166.89;1797209;79;20977;-41
2021/11/28 05:56:53;;;;;;;32.67;14.05;;;;;;;2.98;73.71;98173.48;1810680;77;20925;-41
2021/11/28 05:59:20;;;;;;;44.20;14.07;;;;;;;3.02;73.48;98175.14;1780050;79;20969;-41
2021/11/28 06:01:47;;;;;;;43.90;13.53;;;;;;;3.11;73.32;98166.97;1795976;79;21040;-41
2021/11/28 06:04:14;;;;;;;66.80;14.18;;;;;;;3.11;73.25;98164.85;1730711;82;21496;-41
2021/11/28 06:06:59;;;;;;;56.45;13.22;;;;;;;3.12;73.38;98159.72;1767399;80;21008;-41
2021/11/28 06:09:31;;;;;;;36.55;11.57;;;;;;;3.10;73.25;98168.67;1754762;80;21574;-41
2021/11/28 06:12:00;;;;;;;51.83;11.22;;;;;;;3.06;73.27;98169.33;1769383;80;21484;-41
2021/11/28 06:14:27;;;;;;;30.68;11.28;;;;;;;3.06;73.19;98163.98;1771530;80;21570;-41
2021/11/28 06:17:05;;;;;;;41.33;11.22;;;;;;;3.04;73.36;98172.92;1742227;82;21205;-41
2021/11/28 06:19:35;;;;;;;32.73;10.80;;;;;;;3.06;73.59;98173.91;1740177;82;21027;-41
2021/11/28 06:22:14;;;;;;;24.27;11.53;;;;;;;3.09;73.54;98172.46;1733390;80;20989;-41
2021/11/28 06:24:42;;;;;;;23.98;11.48;;;;;;;3.20;73.51;98156.12;1819028;77;21004;-41
2021/11/28 06:27:12;;;;;;;17.35;11.30;;;;;;;3.31;73.18;98163.91;1833040;77;21606;-41
2021/11/28 06:29:40;;;;;;;25.60;12.35;;;;;;;3.39;72.94;98161.08;1812120;77;21120;-41
2021/11/28 06:32:08;;;;;;;36.17;12.10;;;;;;;3.43;72.62;98159.85;1813419;77;21091;-43
2021/11/28 06:34:53;;;;;;;31.10;12.82;;;;;;;3.44;72.42;98156.03;1815643;77;20993;-41
2021/11/28 06:37:41;;;;;;;15.48;11.53;;;;;;;3.39;72.30;98161.08;1793630;79;21025;-41
2021/11/28 06:40:19;;;;;;;26.93;11.70;;;;;;;3.38;72.27;98154.18;1765432;80;21044;-41
2021/11/28 06:42:48;;;;;;;36.05;12.18;;;;;;;3.43;72.01;98162.53;1793152;79;21071;-41
2021/11/28 06:45:15;;;;;;;70.15;12.25;;;;;;;3.40;71.91;98165.88;1818057;77;20941;-42
2021/11/28 06:47:43;;;;;;;52.83;11.97;;;;;;;3.35;71.84;98165.55;1831398;77;21008;-41
2021/11/28 06:50:11;;;;;;;55.85;12.35;;;;;;;3.29;71.71;98175.53;1781824;79;21036;-42
2021/11/28 06:52:57;;;;;;;14.90;10.85;;;;;;;3.24;71.81;98161.83;1794944;77;21060;-42
2021/11/28 06:55:24;;;;;;;16.82;10.38;;;;;;;3.20;72.03;98175.65;1798772;79;22079;-41
2021/11/28 06:57:53;;;;;;;29.23;10.93;;;;;;;3.30;72.17;98163.67;1810734;79;21260;-41
2021/11/28 07:00:22;;;;;;;58.55;11.03;;;;;;;3.38;72.05;98164.11;1797086;77;21040;-41
2021/11/28 07:02:49;;;;;;;71.97;11.45;;;;;;;3.38;71.90;98158.20;1817022;78;21023;-41
2021/11/28 07:05:27;;;;;;;33.92;11.75;;;;;;;3.37;71.85;98157.19;1827102;77;21315;-42
2021/11/28 07:07:56;;;;;;;28.07;10.25;;;;;;;3.29;71.84;98159.46;1855087;77;21013;-41
2021/11/28 07:10:25;;;;;;;57.23;11.70;;;;;;;3.29;72.17;98158.88;1780753;80;21601;-41
2021/11/28 07:12:55;;;;;;;57.90;11.33;;;;;;;3.33;72.04;98159.00;1754290;80;21507;-41
2021/11/28 07:15:22;;;;;;;63.52;12.10;;;;;;;3.26;72.13;98152.88;1746187;80;21064;-41
2021/11/28 07:17:52;;;;;;;33.83;11.63;;;;;;;3.17;72.43;98160.27;1770129;81;20957;-41
2021/11/28 07:20:22;;;;;;;26.82;12.05;;;;;;;3.14;72.87;98162.86;1741435;81;21921;-41
2021/11/28 07:22:52;;;;;;;29.18;11.75;;;;;;;3.20;73.17;98158.80;1754453;81;21051;-41
2021/11/28 07:25:19;;;;;;;26.17;11.93;;;;;;;3.34;73.15;98159.22;1759469;81;21061;-43
2021/11/28 07:27:49;;;;;;;44.00;12.30;;;;;;;3.47;72.81;98165.52;1754822;81;21033;-41
2021/11/28 07:30:16;;;;;;;40.83;11.75;;;;;;;3.50;72.81;98160.03;1779445;79;21080;-41
2021/11/28 07:32:47;;;;;;;51.70;11.90;;;;;;;3.51;72.75;98154.90;1777028;79;21551;-41
2021/11/28 07:35:22;;;;;;;27.42;11.70;;;;;;;3.48;72.83;98168.98;1702958;80;21029;-41
2021/11/28 07:37:51;;;;;;;30.92;11.08;;;;;;;3.50;72.98;98168.06;1782505;80;21015;-41
2021/11/28 07:40:18;;;;;;;25.62;11.25;;;;;;;3.55;72.89;98173.74;1776845;80;21080;-41
2021/11/28 07:42:47;;;;;;;24.15;12.00;;;;;;;3.60;73.05;98175.62;1738515;81;21061;-41
2021/11/28 07:45:28;;;;;;;36.00;12.65;;;;;;;3.63;73.04;98174.92;1675607;81;21165;-41
2021/11/28 07:48:14;;;;;;;19.95;11.08;;;;;;;3.65;73.20;98169.23;1759899;80;21526;-42
2021/11/28 07:50:43;;;;;;;18.92;11.30;;;;;;;3.67;73.22;98169.13;1781794;80;20969;-41
2021/11/28 07:53:11;;;;;;;47.35;12.20;;;;;;;3.71;73.35;98172.67;1813494;79;21001;-41
2021/11/28 07:55:39;;;;;;;54.73;13.05;;;;;;;3.77;73.56;98167.28;1779801;80;21061;-41
2021/11/28 07:58:24;;;;;;;43.92;12.98;;;;;;;3.78;73.57;98164.80;1777219;80;21781;-41
2021/11/28 08:00:58;;;;;;;21.10;11.40;;;;;;;3.77;73.73;98169.97;1762389;79;21543;-41
2021/11/28 08:03:30;;;;;;;41.58;12.15;;;;;;;3.83;73.74;98167.23;1782863;80;20964;-41
2021/11/28 08:06:16;;;;;;;29.23;12.82;;;;;;;3.89;73.66;98167.20;1777284;80;21041;-41
2021/11/28 08:08:45;;;;;;;39.13;13.08;;;;;;;3.91;73.80;98167.66;1753526;80;21068;-41
2021/11/28 08:11:14;;;;;;;23.20;12.50;;;;;;;3.90;73.93;98160.73;1756677;80;21200;-41
2021/11/28 08:13:42;;;;;;;23.10;11.78;;;;;;;3.96;73.94;98159.13;1775280;79;21504;-41
2021/11/28 08:16:11;;;;;;;19.48;12.55;;;;;;;4.04;74.10;98164.33;1759589;80;21826;-41
2021/11/28 08:18:39;;;;;;;23.38;12.53;;;;;;;4.16;74.07;98170.18;1775695;80;21522;-41
2021/11/28 08:21:08;;;;;;;56.83;14.47;;;;;;;4.26;74.26;98165.05;1786014;80;21016;-41
2021/11/28 08:23:35;;;;;;;24.20;13.68;;;;;;;4.40;74.15;98169.23;1778523;80;21085;-41
2021/11/28 08:26:03;;;;;;;18.52;12.53;;;;;;;4.44;73.67;98170.86;1779069;80;20969;-41
2021/11/28 08:28:32;;;;;;;18.77;12.50;;;;;;;4.50;73.58;98166.80;1782654;80;21025;-41
2021/11/28 08:30:59;;;;;;;26.77;13.22;;;;;;;4.59;73.34;98162.02;1785557;80;20965;-41
2021/11/28 08:33:45;;;;;;;54.67;14.20;;;;;;;4.61;73.32;98169.70;1783295;80;21087;-41
2021/11/28 08:36:20;;;;;;;33.83;14.93;;;;;;;4.55;73.23;98165.75;1783399;80;21130;-41
2021/11/28 08:38:48;;;;;;;27.65;14.63;;;;;;;4.51;73.44;98168.89;1769040;79;21062;-41
2021/11/28 08:41:15;;;;;;;15.55;13.13;;;;;;;4.56;73.49;98165.95;1768097;80;21016;-41
2021/11/28 08:43:43;;;;;;;27.82;14.47;;;;;;;4.62;73.40;98166.68;1785545;80;20997;-41
2021/11/28 08:46:10;;;;;;;20.77;14.53;;;;;;;4.67;73.38;98155.67;1784264;78;21072;-41
2021/11/28 08:48:37;;;;;;;38.42;15.60;;;;;;;4.66;73.47;98155.45;1774099;80;21134;-41
2021/11/28 08:51:05;;;;;;;22.20;14.07;;;;;;;4.69;73.55;98156.12;1767973;78;21088;-39
2021/11/28 08:53:34;;;;;;;19.55;13.48;;;;;;;4.71;73.59;98155.19;1778577;80;21012;-39
2021/11/28 08:56:01;;;;;;;21.15;15.38;;;;;;;4.80;73.68;98150.40;1785637;80;21012;-39
2021/11/28 08:58:28;;;;;;;23.67;14.95;;;;;;;4.93;73.60;98146.27;1785999;80;21100;-39
2021/11/28 09:00:57;;;;;;;23.25;16.07;;;;;;;4.94;73.59;98142.45;1780054;80;21930;-40
2021/11/28 09:03:24;;;;;;;33.90;17.67;;;;;;;4.98;73.79;98141.97;1758340;80;21525;-39
2021/11/28 09:05:51;;;;;;;21.82;15.80;;;;;;;5.06;73.65;98136.95;1779664;80;20953;-39
2021/11/28 09:08:18;;;;;;;21.62;15.70;;;;;;;5.08;73.68;98138.72;1788414;78;21012;-39
2021/11/28 09:10:46;;;;;;;23.20;15.90;;;;;;;5.18;73.58;98139.51;1772474;78;21064;-40
2021/11/28 09:13:14;;;;;;;22.90;17.60;;;;;;;5.25;73.66;98135.61;1788895;80;21134;-39
2021/11/28 09:15:41;;;;;;;22.48;16.97;;;;;;;5.32;73.75;98129.05;1771696;80;21487;-40
2021/11/28 09:18:14;;;;;;;20.35;15.40;;;;;;;5.37;73.81;98131.45;1760029;81;21025;-39
2021/11/28 09:20:38;;;;;;;20.35;15.98;;;;;;;5.40;73.91;98129.38;1764458;79;21036;-39
2021/11/28 09:25:36;;;;;;;22.02;16.65;;;;;;;5.68;73.81;98127.22;1760140;81;21136;-39
2021/11/28 09:28:06;;;;;;;23.60;17.62;;;;;;;5.74;73.71;98122.89;1760099;81;20901;-39
2021/11/28 09:30:35;;;;;;;22.80;14.38;;;;;;;5.79;73.91;98117.23;1760152;81;21585;-39
2021/11/28 09:33:03;;;;;;;21.97;17.27;;;;;;;5.89;73.74;98120.14;1759994;81;21016;-39
2021/11/28 09:35:32;;;;;;;22.50;17.37;;;;;;;5.94;73.38;98115.02;1760029;81;21091;-39
2021/11/28 09:38:00;;;;;;;22.17;18.12;;;;;;;5.95;73.58;98107.17;1761136;78;21129;-39
2021/11/28 09:40:26;;;;;;;23.12;17.77;;;;;;;5.94;73.67;98106.39;1775689;78;20981;-40
2021/11/28 09:42:57;;;;;;;22.65;17.25;;;;;;;5.94;73.84;98113.68;1785527;78;21047;-40
2021/11/28 09:45:27;;;;;;;23.18;18.35;;;;;;;6.01;73.98;98107.06;1764400;80;21013;-39
2021/11/28 09:47:56;;;;;;;;;;;;;;;6.10;73.70;98100.30;1767794;78;20988;-40
2021/11/28 09:50:24;;;;;;;22.45;18.45;;;;;;;6.15;73.89;98088.45;1767916;78;21219;-39
2021/11/28 09:52:51;;;;;;;25.85;19.27;;;;;;;6.08;74.21;98091.05;1769225;78;21008;-39
2021/11/28 09:55:19;;;;;;;23.10;17.77;;;;;;;6.19;74.27;98095.25;1781473;78;21016;-39
2021/11/28 09:57:47;;;;;;;22.70;17.30;;;;;;;6.28;74.20;98095.21;1768241;78;21091;-39
2021/11/28 10:00:15;;;;;;;20.43;16.85;;;;;;;6.37;73.59;98095.73;1790612;78;20964;-39
2021/11/28 10:02:42;;;;;;;23.38;18.48;;;;;;;6.27;73.50;98076.16;1777068;80;21771;-39
2021/11/28 10:05:12;;;;;;;25.32;17.90;;;;;;;6.35;73.69;98093.95;1773106;80;21445;-40
2021/11/28 10:07:44;;;;;;;20.60;16.90;;;;;;;6.40;73.71;98098.25;1765922;80;26476;-40
2021/11/28 10:10:11;;;;;;;20.75;17.12;;;;;;;6.48;73.82;98103.41;1755886;80;21036;-39
2021/11/28 10:12:45;;;;;;;23.18;17.98;;;;;;;6.59;73.84;98097.37;1769170;79;21032;-39
2021/11/28 10:15:19;;;;;;;23.30;19.12;;;;;;;6.64;73.56;98087.63;1784016;80;21307;-39
2021/11/28 10:17:48;;;;;;;22.77;17.82;;;;;;;6.62;73.46;98093.40;1785406;80;21479;-39
2021/11/28 10:20:19;;;;;;;22.45;18.73;;;;;;;6.64;73.48;98082.24;1768798;79;20996;-39
2021/11/28 10:22:47;;;;;;;26.07;18.25;;;;;;;6.69;73.43;98079.23;1767144;80;21008;-40
2021/11/28 10:25:27;;;;;;;21.57;18.23;;;;;;;6.77;73.39;98075.52;1762121;80;21516;-39
2021/11/28 10:27:58;;;;;;;25.55;19.98;;;;;;;6.79;73.30;98078.60;1774437;80;21114;-40
2021/11/28 10:30:32;;;;;;;24.12;18.45;;;;;;;6.79;73.65;98070.52;1774575;80;20988;-39
2021/11/28 10:33:17;;;;;;;25.15;19.65;;;;;;;6.85;73.67;98070.41;1754676;81;21048;-40
2021/11/28 10:36:07;;;;;;;23.77;19.65;;;;;;;6.92;73.65;98073.21;1756628;79;21534;-39
2021/11/28 10:38:41;;;;;;;28.38;19.95;;;;;;;6.96;73.57;98080.20;1756736;80;22230;-39
2021/11/28 10:41:28;;;;;;;23.65;19.10;;;;;;;7.00;73.48;98070.80;1766821;79;21968;-40
2021/11/28 10:43:56;;;;;;;22.35;18.40;;;;;;;7.03;73.37;98074.09;1778275;79;21032;-40
2021/11/28 10:46:28;;;;;;;24.65;19.75;;;;;;;7.05;73.31;98062.97;1782016;79;21043;-39
2021/11/28 10:49:16;;;;;;;23.35;18.70;;;;;;;7.08;73.60;98048.75;1785658;80;21480;-40
2021/11/28 10:51:46;;;;;;;21.93;17.73;;;;;;;7.15;73.63;98048.27;1777769;79;20926;-40
2021/11/28 10:54:35;;;;;;;25.68;18.17;;;;;;;7.25;73.55;98042.79;1767827;79;21074;-40
2021/11/28 10:57:14;;;;;;;24.00;19.40;;;;;;;7.42;73.19;98044.88;1760663;79;21007;-39
2021/11/28 10:59:45;;;;;;;22.47;18.77;;;;;;;7.54;72.94;98039.80;1770087;80;21003;-40
2021/11/28 11:02:28;;;;;;;24.57;18.82;;;;;;;7.69;72.94;98042.84;1785392;80;21091;-40
2021/11/28 11:04:57;;;;;;;22.87;16.87;;;;;;;7.94;72.89;98039.75;1776646;79;21044;-41
2021/11/28 11:07:26;;;;;;;26.60;18.20;;;;;;;8.23;72.09;98039.39;1764788;80;21797;-41
2021/11/28 11:09:54;;;;;;;24.27;19.05;;;;;;;8.47;71.56;98038.05;1785643;80;21036;-41
2021/11/28 11:12:28;;;;;;;23.90;18.80;;;;;;;8.61;70.58;98032.73;1772533;79;21016;-41
2021/11/28 11:14:57;;;;;;;19.57;16.37;;;;;;;8.69;70.57;98026.20;1759933;79;21000;-41
2021/11/28 11:17:28;;;;;;;22.55;16.80;;;;;;;8.80;69.96;98027.03;1765386;80;21574;-41
2021/11/28 11:19:58;;;;;;;20.12;17.15;;;;;;;8.92;69.46;98026.67;1762745;80;20929;-42
2021/11/28 11:22:31;;;;;;;20.80;17.17;;;;;;;8.98;69.06;98029.22;1761065;80;20953;-42
2021/11/28 11:25:15;;;;;;;22.10;18.05;;;;;;;9.00;68.85;98037.73;1785262;80;21056;-41
2021/11/28 11:27:40;;;;;;;21.85;17.02;;;;;;;8.95;68.71;98035.39;1765045;80;21013;-41
2021/11/28 11:30:18;;;;;;;22.32;17.27;;;;;;;8.85;68.51;98030.72;1782953;80;21020;-41
2021/11/28 11:32:56;;;;;;;20.57;16.40;;;;;;;8.73;68.63;98026.41;1785471;80;21762;-41
2021/11/28 11:35:30;;;;;;;21.00;16.93;;;;;;;8.59;68.98;98025.56;1783339;80;21022;-42
2021/11/28 11:38:03;;;;;;;23.55;17.05;;;;;;;8.48;69.52;98039.58;1772713;80;21534;-41
2021/11/28 11:40:31;;;;;;;23.90;17.00;;;;;;;8.36;69.67;98039.91;1779723;80;21032;-41
2021/11/28 11:42:58;;;;;;;24.43;17.30;;;;;;;8.29;70.07;98041.41;1800065;78;21781;-41
2021/11/28 11:45:28;;;;;;;22.80;17.27;;;;;;;8.31;70.34;98037.56;1747908;81;21940;-41
2021/11/28 11:47:55;;;;;;;22.85;18.07;;;;;;;8.29;70.66;98040.05;1744358;80;21645;-41